Time;durP1;ratioP1;P1;durP2;ratioP2;P2;SDS_P1;SDS_P2;PMS_P1;PMS_P2;Temp;Humidity;BMP_temperature;BMP_pressure;BME280_temperature;BME280_humidity;BME280_pressure;Samples;Min_cycle;Max_cycle;Signal;HPM_P1;HPM_P2
2022/09/10 00:01:51;;;;;;;4.40;2.60;;;;;;;;;;5076977;28;20561;-84
2022/09/10 00:04:17;;;;;;;6.38;2.55;;;;;;;;;;5073382;28;20035;-82
2022/09/10 00:06:44;;;;;;;4.45;2.97;;;;;;;;;;5076957;28;20473;-81
2022/09/10 00:09:10;;;;;;;6.57;2.78;;;;;;;;;;5090892;28;20038;-83
2022/09/10 00:11:39;;;;;;;9.60;3.10;;;;;;;;;;5078938;28;20055;-80
2022/09/10 00:14:06;;;;;;;9.18;2.88;;;;;;;;;;5078704;28;20032;-85
2022/09/10 00:16:32;;;;;;;6.43;2.92;;;;;;;;;;5074084;28;20754;-83
2022/09/10 00:19:00;;;;;;;5.82;3.13;;;;;;;;;;5078212;28;20045;-82
2022/09/10 00:21:26;;;;;;;6.88;2.92;;;;;;;;;;5075319;28;20071;-81
2022/09/10 00:23:53;;;;;;;5.47;2.80;;;;;;;;;;5077679;28;20032;-83
2022/09/10 00:26:26;;;;;;;6.75;2.92;;;;;;;;;;5076117;28;20077;-84
2022/09/10 00:28:53;;;;;;;6.20;3.10;;;;;;;;;;5073145;28;20089;-81
2022/09/10 00:31:21;;;;;;;7.57;2.95;;;;;;;;;;5074960;28;20060;-83
2022/09/10 00:33:49;;;;;;;6.80;3.15;;;;;;;;;;5093110;28;20043;-83
2022/09/10 00:36:16;;;;;;;6.65;3.08;;;;;;;;;;5076940;28;20035;-82
2022/09/10 00:38:42;;;;;;;4.30;3.28;;;;;;;;;;5074169;28;20786;-82
2022/09/10 00:41:09;;;;;;;9.60;3.40;;;;;;;;;;5092458;28;20032;-85
2022/09/10 00:43:54;;;;;;;7.35;3.72;;;;;;;;;;5076571;28;20055;-84
2022/09/10 00:46:32;;;;;;;11.18;3.47;;;;;;;;;;5077096;28;20013;-82
2022/09/10 00:49:01;;;;;;;6.63;3.25;;;;;;;;;;5067710;28;20025;-84
2022/09/10 00:51:29;;;;;;;8.45;3.63;;;;;;;;;;5061406;28;20075;-82
2022/09/10 00:53:56;;;;;;;6.18;3.40;;;;;;;;;;5067359;28;20043;-81
2022/09/10 00:56:22;;;;;;;6.35;3.25;;;;;;;;;;5072263;28;20063;-83
2022/09/10 00:58:48;;;;;;;9.57;3.50;;;;;;;;;;5074561;28;20043;-81
2022/09/10 01:01:15;;;;;;;6.50;3.33;;;;;;;;;;5070433;28;20396;-82
2022/09/10 01:03:43;;;;;;;4.78;2.83;;;;;;;;;;5075150;28;20488;-81
2022/09/10 01:06:09;;;;;;;8.75;3.15;;;;;;;;;;5086014;28;20058;-82
2022/09/10 01:08:35;;;;;;;6.72;3.30;;;;;;;;;;5076273;28;20031;-85
2022/09/10 01:11:08;;;;;;;8.75;4.05;;;;;;;;;;5072865;28;20029;-81
2022/09/10 01:13:42;;;;;;;9.77;3.75;;;;;;;;;;5073362;28;20035;-84
2022/09/10 01:16:11;;;;;;;8.20;3.72;;;;;;;;;;5076955;28;20028;-84
2022/09/10 01:18:56;;;;;;;11.75;3.58;;;;;;;;;;5064893;28;20032;-82
2022/09/10 01:21:22;;;;;;;7.22;3.20;;;;;;;;;;5074204;28;20544;-82
2022/09/10 01:23:56;;;;;;;6.03;3.13;;;;;;;;;;5069989;28;20028;-82
2022/09/10 01:26:31;;;;;;;4.57;3.20;;;;;;;;;;5072744;28;20023;-83
2022/09/10 01:29:07;;;;;;;7.43;3.83;;;;;;;;;;5073815;28;20039;-81
2022/09/10 01:31:53;;;;;;;6.28;3.17;;;;;;;;;;5071941;28;20043;-80
2022/09/10 01:34:23;;;;;;;6.47;3.25;;;;;;;;;;5071360;28;20035;-81
2022/09/10 01:36:51;;;;;;;8.93;3.00;;;;;;;;;;5073195;28;20035;-80
2022/09/10 01:39:18;;;;;;;6.40;3.35;;;;;;;;;;5069111;28;20029;-81
2022/09/10 01:41:45;;;;;;;5.70;3.10;;;;;;;;;;5074131;28;20032;-81
2022/09/10 01:44:31;;;;;;;4.95;3.80;;;;;;;;;;5073781;28;20106;-82
2022/09/10 01:47:07;;;;;;;6.05;4.00;;;;;;;;;;5080526;28;20165;-80
2022/09/10 01:49:59;;;;;;;5.10;3.33;;;;;;;;;;5071050;28;20056;-81
2022/09/10 01:52:46;;;;;;;8.52;4.40;;;;;;;;;;5085034;28;20028;-81
2022/09/10 01:55:12;;;;;;;8.52;4.13;;;;;;;;;;5069395;28;20064;-80
2022/09/10 01:57:57;;;;;;;7.30;3.92;;;;;;;;;;5080351;28;20452;-81
2022/09/10 02:00:24;;;;;;;8.27;4.00;;;;;;;;;;5086283;28;20024;-80
2022/09/10 02:03:04;;;;;;;6.72;3.95;;;;;;;;;;5068795;28;20053;-80
2022/09/10 02:05:34;;;;;;;10.65;3.83;;;;;;;;;;5066688;28;20029;-82
2022/09/10 02:08:06;;;;;;;7.57;3.70;;;;;;;;;;5072245;28;20148;-82
2022/09/10 02:10:32;;;;;;;7.93;4.38;;;;;;;;;;5069029;28;20036;-80
2022/09/10 02:12:58;;;;;;;4.85;3.70;;;;;;;;;;5071279;28;20060;-80
2022/09/10 02:15:27;;;;;;;9.73;3.88;;;;;;;;;;5078620;28;20122;-80
2022/09/10 02:17:54;;;;;;;5.53;3.88;;;;;;;;;;5071427;28;20766;-81
2022/09/10 02:20:21;;;;;;;9.82;4.13;;;;;;;;;;5068306;28;20024;-83
2022/09/10 02:22:57;;;;;;;5.78;3.97;;;;;;;;;;5076522;28;20070;-83
2022/09/10 02:25:24;;;;;;;6.13;3.45;;;;;;;;;;5077511;28;20059;-79
2022/09/10 02:27:50;;;;;;;4.95;3.15;;;;;;;;;;5072301;28;20024;-82
2022/09/10 02:30:16;;;;;;;5.95;3.72;;;;;;;;;;5072114;28;20024;-81
2022/09/10 02:32:42;;;;;;;5.40;3.50;;;;;;;;;;5072553;28;20473;-81
2022/09/10 02:35:08;;;;;;;5.65;3.25;;;;;;;;;;5075981;28;20106;-87
2022/09/10 02:37:35;;;;;;;10.32;3.97;;;;;;;;;;5070172;28;20029;-80
2022/09/10 02:40:01;;;;;;;8.00;3.88;;;;;;;;;;5069661;28;20029;-85
2022/09/10 02:42:27;;;;;;;7.70;3.40;;;;;;;;;;5066609;28;20024;-82
2022/09/10 02:44:53;;;;;;;7.03;4.00;;;;;;;;;;5068729;28;20107;-83
2022/09/10 02:47:19;;;;;;;5.70;2.55;;;;;;;;;;5070542;28;20025;-83
2022/09/10 02:49:46;;;;;;;4.85;3.15;;;;;;;;;;5075436;28;20017;-82
2022/09/10 02:52:12;;;;;;;5.00;3.20;;;;;;;;;;5061012;28;20029;-80
2022/09/10 02:54:39;;;;;;;7.43;3.67;;;;;;;;;;5069728;28;20058;-80
2022/09/10 02:57:05;;;;;;;7.53;3.17;;;;;;;;;;5064382;28;20465;-82
2022/09/10 02:59:32;;;;;;;8.63;4.13;;;;;;;;;;5072060;28;20074;-81
2022/09/10 03:01:58;;;;;;;5.85;3.65;;;;;;;;;;5072118;28;20048;-79
2022/09/10 03:04:24;;;;;;;6.57;3.10;;;;;;;;;;5072388;28;20012;-80
2022/09/10 03:06:52;;;;;;;7.07;3.40;;;;;;;;;;5075486;28;20082;-82
2022/09/10 03:09:18;;;;;;;4.97;3.17;;;;;;;;;;5091316;28;20027;-83
2022/09/10 03:11:45;;;;;;;9.40;3.75;;;;;;;;;;5070425;28;20056;-82
2022/09/10 03:14:18;;;;;;;6.55;3.58;;;;;;;;;;5072325;28;20020;-82
2022/09/10 03:16:45;;;;;;;4.88;3.22;;;;;;;;;;5074214;28;20061;-83
2022/09/10 03:19:12;;;;;;;7.00;3.60;;;;;;;;;;5075738;28;20032;-82
2022/09/10 03:21:40;;;;;;;10.13;4.20;;;;;;;;;;5074486;28;20032;-82
2022/09/10 03:24:07;;;;;;;6.63;3.53;;;;;;;;;;5083980;28;20470;-82
2022/09/10 03:26:33;;;;;;;5.93;3.55;;;;;;;;;;5077371;28;20084;-82
2022/09/10 03:28:59;;;;;;;6.05;3.13;;;;;;;;;;5068548;28;20036;-83
2022/09/10 03:31:29;;;;;;;7.22;3.50;;;;;;;;;;5075320;28;20354;-85
2022/09/10 03:33:56;;;;;;;7.45;3.47;;;;;;;;;;5071881;28;20021;-82
2022/09/10 03:36:28;;;;;;;8.13;3.38;;;;;;;;;;5067749;28;20033;-81
2022/09/10 03:38:54;;;;;;;7.22;3.30;;;;;;;;;;5073925;28;20455;-81
2022/09/10 03:41:20;;;;;;;5.93;3.45;;;;;;;;;;5074139;28;20029;-82
2022/09/10 03:43:48;;;;;;;3.95;3.55;;;;;;;;;;5077779;28;20025;-80
2022/09/10 03:46:14;;;;;;;6.40;5.45;;;;;;;;;;5077832;28;20066;-80
2022/09/10 03:48:42;;;;;;;8.32;4.57;;;;;;;;;;5076699;28;20024;-82
2022/09/10 03:51:09;;;;;;;5.00;4.53;;;;;;;;;;5077547;28;20068;-81
2022/09/10 03:53:36;;;;;;;8.45;3.40;;;;;;;;;;5077571;28;20374;-81
2022/09/10 03:56:02;;;;;;;11.70;4.10;;;;;;;;;;5079457;28;20032;-82
2022/09/10 03:58:28;;;;;;;6.70;3.75;;;;;;;;;;5078638;28;20033;-80
2022/09/10 04:00:54;;;;;;;7.10;4.38;;;;;;;;;;5079318;28;20036;-81
2022/09/10 04:03:21;;;;;;;4.72;3.72;;;;;;;;;;5077833;28;20117;-81
2022/09/10 04:05:47;;;;;;;6.55;3.85;;;;;;;;;;5080097;28;20058;-80
2022/09/10 04:08:13;;;;;;;4.93;4.00;;;;;;;;;;5078596;28;20115;-81
2022/09/10 04:10:40;;;;;;;5.43;3.70;;;;;;;;;;5078201;28;20025;-81
2022/09/10 04:13:06;;;;;;;4.72;3.25;;;;;;;;;;5063266;28;20029;-80
2022/09/10 04:15:32;;;;;;;6.60;3.40;;;;;;;;;;5072659;28;20039;-81
2022/09/10 04:17:58;;;;;;;4.82;3.20;;;;;;;;;;5073200;28;20021;-81
2022/09/10 04:20:24;;;;;;;5.28;2.97;;;;;;;;;;5076185;28;20054;-81
2022/09/10 04:22:51;;;;;;;6.05;3.58;;;;;;;;;;5079652;28;20555;-79
2022/09/10 04:25:17;;;;;;;5.45;3.72;;;;;;;;;;5074537;28;20025;-80
2022/09/10 04:27:44;;;;;;;5.25;3.80;;;;;;;;;;5076129;28;20032;-81
2022/09/10 04:30:10;;;;;;;4.25;3.00;;;;;;;;;;5076838;28;20033;-80
2022/09/10 04:32:37;;;;;;;3.58;3.03;;;;;;;;;;5073511;28;20377;-80
2022/09/10 04:35:03;;;;;;;4.78;3.15;;;;;;;;;;5079385;28;20024;-81
2022/09/10 04:37:30;;;;;;;4.60;3.40;;;;;;;;;;5092557;28;20031;-81
2022/09/10 04:39:56;;;;;;;6.22;3.83;;;;;;;;;;5077725;28;20023;-80
2022/09/10 04:42:23;;;;;;;4.35;3.25;;;;;;;;;;5077547;28;20032;-80
2022/09/10 04:44:49;;;;;;;4.50;3.50;;;;;;;;;;5074979;28;20075;-79
2022/09/10 04:47:16;;;;;;;7.57;3.83;;;;;;;;;;5077603;28;20024;-80
2022/09/10 04:49:42;;;;;;;4.40;3.72;;;;;;;;;;5075386;28;20118;-79
2022/09/10 04:52:10;;;;;;;4.13;3.75;;;;;;;;;;5068519;28;20032;-80
2022/09/10 04:54:37;;;;;;;5.13;3.70;;;;;;;;;;5076286;28;20056;-80
2022/09/10 04:57:06;;;;;;;6.85;3.60;;;;;;;;;;5078385;28;20479;-79
2022/09/10 04:59:33;;;;;;;5.85;3.90;;;;;;;;;;5075005;28;20035;-81
2022/09/10 05:02:00;;;;;;;4.25;3.25;;;;;;;;;;5078732;28;20474;-79
2022/09/10 05:04:26;;;;;;;6.25;3.22;;;;;;;;;;5075833;28;20028;-80
2022/09/10 05:06:52;;;;;;;5.43;3.30;;;;;;;;;;5074590;28;20485;-80
2022/09/10 05:09:18;;;;;;;5.00;3.75;;;;;;;;;;5077583;28;20037;-80
2022/09/10 05:11:48;;;;;;;6.05;3.22;;;;;;;;;;5071151;28;20039;-79
2022/09/10 05:14:15;;;;;;;5.38;4.65;;;;;;;;;;5075871;28;20105;-80
2022/09/10 05:16:42;;;;;;;5.20;3.60;;;;;;;;;;5074476;28;20024;-80
2022/09/10 05:19:08;;;;;;;4.10;3.40;;;;;;;;;;5095071;28;20033;-80
2022/09/10 05:21:34;;;;;;;4.68;3.88;;;;;;;;;;5068474;28;20165;-81
2022/09/10 05:24:00;;;;;;;6.40;3.72;;;;;;;;;;5077252;28;20056;-81
2022/09/10 05:26:26;;;;;;;5.85;3.40;;;;;;;;;;5097732;28;20048;-82
2022/09/10 05:28:53;;;;;;;4.20;3.50;;;;;;;;;;5076834;28;20036;-81
2022/09/10 05:31:20;;;;;;;6.00;3.60;;;;;;;;;;5083282;28;20028;-81
2022/09/10 05:33:46;;;;;;;5.53;3.28;;;;;;;;;;5083206;28;20028;-81
2022/09/10 05:36:13;;;;;;;3.83;3.42;;;;;;;;;;5082206;28;20036;-81
2022/09/10 05:38:39;;;;;;;5.78;3.50;;;;;;;;;;5084023;28;20039;-80
2022/09/10 05:41:09;;;;;;;6.70;4.00;;;;;;;;;;5078121;28;20032;-80
2022/09/10 05:43:35;;;;;;;4.50;3.40;;;;;;;;;;5081654;28;20023;-80
2022/09/10 05:46:02;;;;;;;4.35;3.92;;;;;;;;;;5082711;28;20032;-81
2022/09/10 05:48:28;;;;;;;5.32;3.50;;;;;;;;;;5097501;28;20020;-81
2022/09/10 05:50:54;;;;;;;4.93;3.47;;;;;;;;;;5084639;28;20100;-82
2022/09/10 05:53:20;;;;;;;4.25;3.45;;;;;;;;;;5077572;28;20088;-81
2022/09/10 05:55:47;;;;;;;5.03;3.58;;;;;;;;;;5085844;28;20032;-81
2022/09/10 05:58:13;;;;;;;4.20;3.58;;;;;;;;;;5084980;28;20028;-80
2022/09/10 06:00:42;;;;;;;5.80;3.40;;;;;;;;;;5076293;28;20028;-81
2022/09/10 06:03:09;;;;;;;5.75;4.47;;;;;;;;;;5078536;28;20041;-80
2022/09/10 06:05:35;;;;;;;5.80;3.78;;;;;;;;;;5075432;28;20049;-80
2022/09/10 06:08:02;;;;;;;4.57;3.75;;;;;;;;;;5076798;28;20076;-80
2022/09/10 06:10:28;;;;;;;5.07;3.42;;;;;;;;;;5074507;28;20503;-81
2022/09/10 06:12:54;;;;;;;4.25;3.53;;;;;;;;;;5077095;28;20032;-81
2022/09/10 06:15:21;;;;;;;4.97;3.42;;;;;;;;;;5068798;28;20036;-80
2022/09/10 06:17:47;;;;;;;4.50;3.63;;;;;;;;;;5076307;28;20063;-81
2022/09/10 06:20:14;;;;;;;4.93;3.50;;;;;;;;;;5070373;28;20028;-81
2022/09/10 06:22:40;;;;;;;5.10;3.60;;;;;;;;;;5069810;28;20100;-81
2022/09/10 06:25:07;;;;;;;9.45;3.85;;;;;;;;;;5088865;28;20106;-80
2022/09/10 06:27:33;;;;;;;3.90;3.45;;;;;;;;;;5069028;28;20131;-82
2022/09/10 06:29:59;;;;;;;4.60;3.38;;;;;;;;;;5073027;28;20401;-82
2022/09/10 06:32:26;;;;;;;3.35;3.05;;;;;;;;;;5072907;28;20515;-80
2022/09/10 06:34:52;;;;;;;4.00;3.60;;;;;;;;;;5071692;28;20036;-80
2022/09/10 06:37:18;;;;;;;5.72;3.40;;;;;;;;;;5066993;28;20777;-81
2022/09/10 06:39:44;;;;;;;4.65;3.00;;;;;;;;;;5065615;28;20063;-80
2022/09/10 06:42:11;;;;;;;4.57;3.65;;;;;;;;;;5076965;28;20071;-82
2022/09/10 06:44:38;;;;;;;3.50;3.08;;;;;;;;;;5072215;28;20021;-81
2022/09/10 06:47:05;;;;;;;4.88;3.40;;;;;;;;;;5074783;28;20032;-83
2022/09/10 06:49:32;;;;;;;5.15;3.72;;;;;;;;;;5074262;28;20021;-80
2022/09/10 06:51:58;;;;;;;3.38;2.88;;;;;;;;;;5074025;28;20043;-80
2022/09/10 06:54:25;;;;;;;3.80;3.30;;;;;;;;;;5072519;28;20111;-80
2022/09/10 06:56:51;;;;;;;5.63;3.63;;;;;;;;;;5073925;28;20043;-81
2022/09/10 06:59:17;;;;;;;8.27;3.70;;;;;;;;;;5074475;28;20086;-80
2022/09/10 07:01:46;;;;;;;5.93;3.65;;;;;;;;;;5069096;28;20037;-82
2022/09/10 07:04:12;;;;;;;5.32;3.85;;;;;;;;;;5075835;28;20107;-82
2022/09/10 07:06:38;;;;;;;4.32;3.92;;;;;;;;;;5074214;28;20020;-82
2022/09/10 07:09:04;;;;;;;5.15;3.28;;;;;;;;;;5066973;28;20535;-83
2022/09/10 07:11:31;;;;;;;8.73;4.35;;;;;;;;;;5073947;28;20060;-84
2022/09/10 07:13:58;;;;;;;6.78;3.30;;;;;;;;;;5070955;28;20041;-80
2022/09/10 07:16:25;;;;;;;5.90;3.50;;;;;;;;;;5069975;28;20470;-82
2022/09/10 07:18:53;;;;;;;4.25;3.28;;;;;;;;;;5075127;28;20040;-81
2022/09/10 07:21:20;;;;;;;4.35;3.33;;;;;;;;;;5071005;28;20028;-83
2022/09/10 07:23:50;;;;;;;5.10;3.65;;;;;;;;;;5076499;28;20039;-81
2022/09/10 07:26:18;;;;;;;3.40;3.10;;;;;;;;;;5080101;28;20024;-81
2022/09/10 07:28:45;;;;;;;4.43;3.00;;;;;;;;;;5078043;28;20024;-83
2022/09/10 07:31:14;;;;;;;5.00;3.65;;;;;;;;;;5081224;28;20036;-86
2022/09/10 07:33:40;;;;;;;3.95;2.85;;;;;;;;;;5072273;28;20035;-82
2022/09/10 07:36:07;;;;;;;5.45;3.47;;;;;;;;;;5071611;28;20043;-81
2022/09/10 07:38:33;;;;;;;5.05;3.58;;;;;;;;;;5075722;28;20028;-84
2022/09/10 07:40:59;;;;;;;5.72;3.42;;;;;;;;;;5076065;28;20389;-86
2022/09/10 07:43:26;;;;;;;6.65;3.97;;;;;;;;;;5075670;28;20129;-82
2022/09/10 07:45:52;;;;;;;5.22;3.92;;;;;;;;;;5070022;28;20571;-81
2022/09/10 07:48:18;;;;;;;3.88;3.20;;;;;;;;;;5072672;28;20058;-81
2022/09/10 07:50:44;;;;;;;5.07;3.45;;;;;;;;;;5075759;28;20025;-80
2022/09/10 07:53:12;;;;;;;5.10;3.30;;;;;;;;;;5072547;28;20416;-82
2022/09/10 07:55:38;;;;;;;5.68;3.75;;;;;;;;;;5075442;28;20028;-81
2022/09/10 07:58:05;;;;;;;6.45;3.80;;;;;;;;;;5070545;28;20031;-82
2022/09/10 08:00:31;;;;;;;5.43;3.63;;;;;;;;;;5073358;28;20040;-80
2022/09/10 08:02:57;;;;;;;7.53;3.63;;;;;;;;;;5074759;28;20185;-78
2022/09/10 08:05:23;;;;;;;6.30;3.88;;;;;;;;;;5073315;28;20024;-78
2022/09/10 08:07:55;;;;;;;6.72;4.30;;;;;;;;;;5076242;28;20047;-80
2022/09/10 08:10:22;;;;;;;6.28;4.07;;;;;;;;;;5073403;28;20020;-76
2022/09/10 08:12:48;;;;;;;6.35;3.72;;;;;;;;;;5067587;28;20042;-78
2022/09/10 08:15:15;;;;;;;6.15;4.10;;;;;;;;;;5069989;28;20070;-79
2022/09/10 08:17:41;;;;;;;6.05;3.17;;;;;;;;;;5089440;28;20148;-79
2022/09/10 08:20:08;;;;;;;8.77;4.07;;;;;;;;;;5074969;28;20028;-80
2022/09/10 08:22:34;;;;;;;6.28;3.38;;;;;;;;;;5070472;28;21064;-78
2022/09/10 08:25:01;;;;;;;4.85;3.50;;;;;;;;;;5074863;28;20129;-78
2022/09/10 08:27:27;;;;;;;5.72;4.00;;;;;;;;;;5067384;28;20368;-79
2022/09/10 08:29:53;;;;;;;6.00;3.42;;;;;;;;;;5074798;28;20040;-80
2022/09/10 08:32:23;;;;;;;6.88;3.90;;;;;;;;;;5073351;28;20029;-81
2022/09/10 08:34:51;;;;;;;6.78;3.60;;;;;;;;;;5076683;28;20158;-80
2022/09/10 08:37:17;;;;;;;8.90;3.25;;;;;;;;;;5072010;28;20021;-78
2022/09/10 08:39:44;;;;;;;5.15;3.33;;;;;;;;;;5073171;28;20031;-86
2022/09/10 08:42:20;;;;;;;6.35;3.35;;;;;;;;;;5071732;28;20527;-81
2022/09/10 08:44:49;;;;;;;6.85;3.22;;;;;;;;;;5069248;28;20032;-79
2022/09/10 08:47:28;;;;;;;5.35;3.30;;;;;;;;;;5076385;28;20474;-77
2022/09/10 08:49:59;;;;;;;6.68;3.60;;;;;;;;;;5071697;28;20078;-80
2022/09/10 08:52:29;;;;;;;6.00;3.15;;;;;;;;;;5073447;28;20443;-78
2022/09/10 08:54:59;;;;;;;5.53;3.38;;;;;;;;;;5085168;28;20033;-79
2022/09/10 08:57:31;;;;;;;5.13;3.30;;;;;;;;;;5072216;28;20035;-77
2022/09/10 08:59:58;;;;;;;6.18;3.30;;;;;;;;;;5089140;28;20043;-81
2022/09/10 09:02:24;;;;;;;5.05;3.17;;;;;;;;;;5072679;28;20048;-80
2022/09/10 09:04:54;;;;;;;7.22;3.30;;;;;;;;;;5076848;28;20071;-81
2022/09/10 09:07:21;;;;;;;8.95;3.58;;;;;;;;;;5070586;28;20040;-77
2022/09/10 09:09:51;;;;;;;5.72;3.63;;;;;;;;;;5076933;28;20052;-78
2022/09/10 09:12:20;;;;;;;6.50;2.58;;;;;;;;;;5070205;28;20035;-80
2022/09/10 09:14:52;;;;;;;9.82;3.50;;;;;;;;;;5073994;28;20028;-78
2022/09/10 09:17:24;;;;;;;4.28;3.10;;;;;;;;;;5061767;28;20044;-81
2022/09/10 09:20:04;;;;;;;4.95;3.03;;;;;;;;;;5086367;28;20034;-82
2022/09/10 09:22:48;;;;;;;7.10;4.32;;;;;;;;;;5060603;28;20108;-81
2022/09/10 09:25:26;;;;;;;7.70;2.92;;;;;;;;;;5072843;28;20070;-80
2022/09/10 09:27:54;;;;;;;6.60;2.90;;;;;;;;;;5087657;28;20059;-80
2022/09/10 09:30:40;;;;;;;5.47;2.78;;;;;;;;;;5064470;28;20031;-80
2022/09/10 09:33:13;;;;;;;5.05;3.05;;;;;;;;;;5074275;28;20020;-80
2022/09/10 09:35:51;;;;;;;7.13;2.85;;;;;;;;;;5068411;28;20048;-83
2022/09/10 09:38:22;;;;;;;5.65;2.90;;;;;;;;;;5075194;28;20024;-79
2022/09/10 09:40:55;;;;;;;6.72;3.10;;;;;;;;;;5067288;28;20052;-80
2022/09/10 09:43:30;;;;;;;10.70;3.00;;;;;;;;;;5071234;28;20028;-79
2022/09/10 09:45:57;;;;;;;7.15;3.20;;;;;;;;;;5072034;28;20026;-79
2022/09/10 09:48:23;;;;;;;4.60;2.67;;;;;;;;;;5066616;28;20102;-78
2022/09/10 09:50:52;;;;;;;6.20;2.58;;;;;;;;;;5077450;28;20089;-79
2022/09/10 09:53:26;;;;;;;3.72;2.40;;;;;;;;;;5083654;28;20070;-82
2022/09/10 09:55:54;;;;;;;9.88;3.42;;;;;;;;;;5082733;28;20032;-80
2022/09/10 09:58:20;;;;;;;8.95;3.13;;;;;;;;;;5085227;28;20035;-78
2022/09/10 10:00:52;;;;;;;4.35;2.60;;;;;;;;;;5082471;28;20060;-77
2022/09/10 10:03:26;;;;;;;6.07;3.10;;;;;;;;;;5079831;28;20170;-79
2022/09/10 10:06:05;;;;;;;6.45;2.80;;;;;;;;;;5078872;28;20091;-80
2022/09/10 10:08:33;;;;;;;6.40;2.72;;;;;;;;;;5078665;28;20031;-78
2022/09/10 10:10:59;;;;;;;3.15;2.65;;;;;;;;;;5085407;28;20049;-78
2022/09/10 10:13:36;;;;;;;5.07;2.75;;;;;;;;;;5078987;28;20032;-78
2022/09/10 10:16:14;;;;;;;4.47;2.80;;;;;;;;;;5081294;28;20091;-78
2022/09/10 10:18:41;;;;;;;9.40;2.67;;;;;;;;;;5081785;28;20020;-80
2022/09/10 10:21:15;;;;;;;7.80;2.55;;;;;;;;;;5078818;28;20948;-76
2022/09/10 10:23:41;;;;;;;6.82;2.90;;;;;;;;;;5083391;28;20503;-80
2022/09/10 10:26:17;;;;;;;6.30;2.75;;;;;;;;;;5084692;28;20020;-80
2022/09/10 10:29:05;;;;;;;6.25;2.65;;;;;;;;;;5083526;28;20040;-78
2022/09/10 10:31:41;;;;;;;6.30;2.70;;;;;;;;;;5080718;28;20839;-78
2022/09/10 10:34:14;;;;;;;7.25;2.80;;;;;;;;;;5079726;28;20024;-78
2022/09/10 10:36:43;;;;;;;5.68;2.58;;;;;;;;;;5079082;28;20039;-79
2022/09/10 10:39:14;;;;;;;10.73;2.90;;;;;;;;;;5078307;28;20036;-80
2022/09/10 10:41:49;;;;;;;3.45;2.30;;;;;;;;;;5081372;28;20020;-80
2022/09/10 10:44:22;;;;;;;6.22;2.88;;;;;;;;;;5074982;28;20119;-79
2022/09/10 10:47:08;;;;;;;5.07;2.72;;;;;;;;;;5081965;28;20031;-82
2022/09/10 10:49:34;;;;;;;;;;;;;;;;;;5082245;28;20473;-79
2022/09/10 10:52:06;;;;;;;4.00;2.30;;;;;;;;;;5084582;28;19908;-81
2022/09/10 10:54:41;;;;;;;6.38;3.13;;;;;;;;;;5076947;28;20033;-80
2022/09/10 10:57:16;;;;;;;7.78;2.88;;;;;;;;;;5083553;28;20024;-81
2022/09/10 10:59:42;;;;;;;4.27;2.57;;;;;;;;;;5081785;28;20043;-82
2022/09/10 11:02:17;;;;;;;9.02;2.88;;;;;;;;;;5079692;28;20063;-82
2022/09/10 11:04:49;;;;;;;7.32;2.92;;;;;;;;;;5079684;28;20024;-77
2022/09/10 11:07:26;;;;;;;4.03;2.30;;;;;;;;;;5085110;28;20046;-77
2022/09/10 11:09:58;;;;;;;4.68;2.25;;;;;;;;;;5086322;28;20069;-78
2022/09/10 11:12:47;;;;;;;5.60;3.00;;;;;;;;;;5080397;28;20027;-77
2022/09/10 11:15:29;;;;;;;4.10;2.83;;;;;;;;;;5072243;28;20032;-77
2022/09/10 11:17:59;;;;;;;5.65;2.78;;;;;;;;;;5077224;28;20024;-79
2022/09/10 11:20:28;;;;;;;4.15;2.50;;;;;;;;;;5080137;28;20036;-79
2022/09/10 11:22:59;;;;;;;4.90;2.00;;;;;;;;;;5086214;28;20018;-80
2022/09/10 11:25:28;;;;;;;3.15;2.05;;;;;;;;;;5081169;28;20095;-80
2022/09/10 11:28:12;;;;;;;3.75;2.40;;;;;;;;;;5081657;28;20020;-80
2022/09/10 11:30:40;;;;;;;4.20;2.10;;;;;;;;;;5077789;28;20021;-78
2022/09/10 11:33:06;;;;;;;2.97;1.90;;;;;;;;;;5083801;28;20492;-78
2022/09/10 11:35:35;;;;;;;2.92;2.10;;;;;;;;;;5079293;28;20020;-80
2022/09/10 11:38:15;;;;;;;3.22;1.90;;;;;;;;;;5078243;28;20016;-80
2022/09/10 11:40:45;;;;;;;3.85;2.10;;;;;;;;;;5080701;28;20020;-81
2022/09/10 11:43:25;;;;;;;6.90;2.45;;;;;;;;;;5080341;28;20102;-81
2022/09/10 11:45:54;;;;;;;3.03;2.40;;;;;;;;;;5081848;28;20031;-80
2022/09/10 11:48:24;;;;;;;4.78;2.05;;;;;;;;;;5077261;28;20028;-81
2022/09/10 11:51:00;;;;;;;3.33;2.25;;;;;;;;;;5078551;28;20048;-80
2022/09/10 11:53:26;;;;;;;;;;;;;;;;;;5079281;28;20046;-78
2022/09/10 11:56:08;;;;;;;4.57;3.08;;;;;;;;;;5080003;28;19953;-78
2022/09/10 11:58:52;;;;;;;3.13;2.33;;;;;;;;;;5084938;28;20146;-78
2022/09/10 12:01:42;;;;;;;2.40;2.10;;;;;;;;;;5090084;28;20048;-79
2022/09/10 12:04:16;;;;;;;2.58;2.25;;;;;;;;;;5088339;28;20066;-79
2022/09/10 12:06:45;;;;;;;4.55;2.33;;;;;;;;;;5091298;28;20030;-79
2022/09/10 12:09:25;;;;;;;3.90;2.63;;;;;;;;;;5103739;28;20040;-79
2022/09/10 12:11:57;;;;;;;3.22;2.45;;;;;;;;;;5090608;28;20735;-78
2022/09/10 12:14:23;;;;;;;4.72;2.22;;;;;;;;;;5085291;28;20062;-77
2022/09/10 12:17:13;;;;;;;3.92;2.25;;;;;;;;;;5088730;28;20028;-81
2022/09/10 12:19:59;;;;;;;5.75;2.78;;;;;;;;;;5080293;28;20040;-80
2022/09/10 12:22:25;;;;;;;5.90;2.88;;;;;;;;;;5083368;28;20021;-79
2022/09/10 12:24:53;;;;;;;3.97;2.40;;;;;;;;;;5083016;28;20031;-79
2022/09/10 12:27:19;;;;;;;2.72;1.90;;;;;;;;;;5083726;28;20032;-80
2022/09/10 12:29:46;;;;;;;4.05;2.20;;;;;;;;;;5087218;28;20034;-80
2022/09/10 12:32:27;;;;;;;4.43;2.20;;;;;;;;;;5068601;28;20092;-79
2022/09/10 12:35:12;;;;;;;5.07;2.00;;;;;;;;;;5085248;28;20091;-80
2022/09/10 12:37:38;;;;;;;3.35;2.10;;;;;;;;;;5087810;28;20144;-77
2022/09/10 12:40:24;;;;;;;3.40;1.98;;;;;;;;;;5080368;28;20024;-78
2022/09/10 12:42:51;;;;;;;2.88;1.88;;;;;;;;;;5082768;28;20107;-79
2022/09/10 12:45:36;;;;;;;4.30;2.35;;;;;;;;;;5083598;28;20024;-79
2022/09/10 12:48:02;;;;;;;;;;;;;;;;;;5084246;28;20023;-79
2022/09/10 12:50:32;;;;;;;7.20;2.08;;;;;;;;;;5082957;28;19918;-80
2022/09/10 12:53:12;;;;;;;3.28;2.03;;;;;;;;;;5081352;28;20039;-80
2022/09/10 12:55:52;;;;;;;2.20;1.90;;;;;;;;;;5083316;28;20522;-78
2022/09/10 12:58:21;;;;;;;2.83;1.88;;;;;;;;;;5080514;28;20081;-78
2022/09/10 13:00:54;;;;;;;3.55;1.77;;;;;;;;;;5084224;28;20112;-78
2022/09/10 13:03:26;;;;;;;2.60;1.90;;;;;;;;;;5079819;28;20064;-78
2022/09/10 13:05:55;;;;;;;3.30;1.92;;;;;;;;;;5081864;28;20031;-79
2022/09/10 13:08:24;;;;;;;4.50;2.50;;;;;;;;;;5076285;28;20028;-79
2022/09/10 13:11:00;;;;;;;2.92;1.80;;;;;;;;;;5080265;28;20564;-79
2022/09/10 13:13:35;;;;;;;3.63;1.90;;;;;;;;;;5076774;28;20019;-78
2022/09/10 13:16:02;;;;;;;4.60;1.98;;;;;;;;;;5079742;28;20036;-79
2022/09/10 13:18:29;;;;;;;2.78;1.63;;;;;;;;;;5080897;28;20108;-79
2022/09/10 13:20:57;;;;;;;4.85;2.00;;;;;;;;;;5079122;28;20035;-79
2022/09/10 13:23:44;;;;;;;2.03;1.70;;;;;;;;;;5085193;28;20053;-79
2022/09/10 13:26:32;;;;;;;3.78;1.95;;;;;;;;;;5081470;28;20111;-79
2022/09/10 13:29:12;;;;;;;3.05;1.98;;;;;;;;;;5081521;28;20498;-80
2022/09/10 13:31:41;;;;;;;5.13;1.90;;;;;;;;;;5084276;28;20024;-80
2022/09/10 13:34:14;;;;;;;3.17;2.10;;;;;;;;;;5082360;28;20542;-80
2022/09/10 13:36:58;;;;;;;4.40;2.10;;;;;;;;;;5102635;28;20042;-80
2022/09/10 13:39:33;;;;;;;5.93;2.00;;;;;;;;;;5086138;28;20026;-80
2022/09/10 13:42:19;;;;;;;2.97;1.88;;;;;;;;;;5081719;28;20047;-80
2022/09/10 13:44:54;;;;;;;3.65;2.50;;;;;;;;;;5069819;28;20385;-79
2022/09/10 13:47:41;;;;;;;3.95;1.88;;;;;;;;;;5084022;28;20025;-79
2022/09/10 13:50:18;;;;;;;3.95;1.90;;;;;;;;;;5056384;28;20074;-80
2022/09/10 13:52:47;;;;;;;4.30;2.08;;;;;;;;;;5081820;28;20491;-79
2022/09/10 13:55:17;;;;;;;3.42;1.95;;;;;;;;;;5075836;28;20029;-79
2022/09/10 13:57:46;;;;;;;3.15;2.10;;;;;;;;;;5080069;28;20030;-79
2022/09/10 14:00:22;;;;;;;4.95;2.40;;;;;;;;;;5082022;28;20042;-79
2022/09/10 14:02:58;;;;;;;3.63;2.05;;;;;;;;;;5082155;28;20088;-79
2022/09/10 14:05:36;;;;;;;4.57;2.38;;;;;;;;;;5084730;28;20473;-79
2022/09/10 14:08:05;;;;;;;2.70;1.98;;;;;;;;;;5082781;28;20047;-79
2022/09/10 14:10:35;;;;;;;5.30;2.38;;;;;;;;;;5082107;28;20051;-79
2022/09/10 14:13:01;;;;;;;2.95;2.13;;;;;;;;;;5078488;28;20713;-79
2022/09/10 14:15:35;;;;;;;4.30;2.03;;;;;;;;;;5081236;28;20042;-79
2022/09/10 14:18:01;;;;;;;3.83;2.17;;;;;;;;;;5079350;28;20834;-79
2022/09/10 14:20:29;;;;;;;4.13;2.25;;;;;;;;;;5082948;28;20047;-79
2022/09/10 14:22:58;;;;;;;2.55;2.00;;;;;;;;;;5083335;28;20084;-78
2022/09/10 14:25:32;;;;;;;3.60;1.95;;;;;;;;;;5084946;28;20079;-78
2022/09/10 14:28:24;;;;;;;3.08;2.00;;;;;;;;;;5085027;28;20039;-78
2022/09/10 14:30:51;;;;;;;6.55;2.13;;;;;;;;;;5080748;28;20499;-77
2022/09/10 14:33:34;;;;;;;4.57;2.10;;;;;;;;;;5084899;28;20377;-78
2022/09/10 14:36:17;;;;;;;4.90;2.20;;;;;;;;;;5081486;28;20477;-77
2022/09/10 14:38:44;;;;;;;6.85;2.35;;;;;;;;;;5087179;28;20024;-77
2022/09/10 14:41:25;;;;;;;3.10;2.13;;;;;;;;;;5082340;28;20629;-78
2022/09/10 14:44:10;;;;;;;3.13;2.00;;;;;;;;;;5082034;28;20036;-77
2022/09/10 14:46:56;;;;;;;3.67;1.95;;;;;;;;;;5085758;28;20032;-76
2022/09/10 14:49:30;;;;;;;3.58;2.00;;;;;;;;;;5078032;28;20039;-75
2022/09/10 14:51:59;;;;;;;5.78;2.40;;;;;;;;;;5078600;28;20119;-77
2022/09/10 14:54:26;;;;;;;3.15;2.03;;;;;;;;;;5083495;28;20408;-78
2022/09/10 14:56:53;;;;;;;5.50;2.50;;;;;;;;;;5080201;28;20020;-79
2022/09/10 14:59:22;;;;;;;3.72;2.20;;;;;;;;;;5084505;28;20067;-80
2022/09/10 15:01:48;;;;;;;6.35;2.80;;;;;;;;;;5083133;28;20048;-79